BWA432 TTCP-TBPB
Flight info
| Callsign | BWA432 |
|---|---|
| Flight time | 0h 37m |
| Altitude | 19000 |
| Route | TAB R515 BGI |
| Aircraft | L101/H-SDFGHIRWXY/S |
Departure
| Time | 2026-04-28 08:27 |
|---|---|
| Airport | A.N.R. Robinson International Airport (TTCP) |
Arrival
| Time | 2026-04-28 09:04 |
|---|---|
| Airport | Grantley Adams International Airport (TBPB) |
| Time | Latitude | Longitude | Altitude | Speed | Heading |
|---|---|---|---|---|---|
| 2026-04-28 08:09 | 11.15189 | -60.84004 | 40 ft | 0 kts | 0° |
| 2026-04-28 08:14 | 11.15179 | -60.84004 | 40 ft | 3 kts | 0° |
| 2026-04-28 08:14 | 11.15152 | -60.84004 | 40 ft | 3 kts | 1° |
| 2026-04-28 08:15 | 11.15127 | -60.84004 | 38 ft | 4 kts | 339° |
| 2026-04-28 08:15 | 11.15118 | -60.83995 | 39 ft | 3 kts | 275° |
| 2026-04-28 08:15 | 11.15116 | -60.83971 | 38 ft | 2 kts | 275° |
| 2026-04-28 08:15 | 11.15116 | -60.83970 | 38 ft | 0 kts | 275° |
| 2026-04-28 08:23 | 11.15116 | -60.83976 | 39 ft | 4 kts | 276° |
| 2026-04-28 08:23 | 11.15121 | -60.84024 | 38 ft | 10 kts | 276° |
| 2026-04-28 08:23 | 11.15124 | -60.84090 | 40 ft | 9 kts | 259° |
| 2026-04-28 08:23 | 11.15092 | -60.84142 | 39 ft | 11 kts | 233° |
| 2026-04-28 08:24 | 11.15048 | -60.84206 | 39 ft | 10 kts | 253° |
| 2026-04-28 08:24 | 11.15038 | -60.84286 | 38 ft | 13 kts | 269° |
| 2026-04-28 08:24 | 11.15013 | -60.84362 | 39 ft | 10 kts | 250° |
| 2026-04-28 08:24 | 11.15016 | -60.84418 | 39 ft | 3 kts | 298° |
| 2026-04-28 08:25 | 11.15026 | -60.84421 | 37 ft | 2 kts | 351° |
| 2026-04-28 08:25 | 11.15037 | -60.84416 | 39 ft | 3 kts | 32° |
| 2026-04-28 08:25 | 11.15045 | -60.84395 | 39 ft | 4 kts | 81° |
| 2026-04-28 08:26 | 11.15045 | -60.84314 | 38 ft | 2 kts | 91° |
| 2026-04-28 08:26 | 11.15043 | -60.84276 | 39 ft | 19 kts | 96° |
| 2026-04-28 08:26 | 11.15008 | -60.83829 | 38 ft | 112 kts | 95° |
| 2026-04-28 08:26 | 11.14914 | -60.82771 | 239 ft | 174 kts | 94° |
| 2026-04-28 08:27 | 11.14774 | -60.81550 | 1363 ft | 169 kts | 98° |
| 2026-04-28 08:27 | 11.14574 | -60.80358 | 2594 ft | 174 kts | 100° |
| 2026-04-28 08:27 | 11.14349 | -60.79128 | 3713 ft | 178 kts | 99° |
| 2026-04-28 08:27 | 11.14218 | -60.77865 | 4863 ft | 182 kts | 94° |
| 2026-04-28 08:28 | 11.14239 | -60.76547 | 5819 ft | 193 kts | 77° |
| 2026-04-28 08:28 | 11.14899 | -60.75513 | 6388 ft | 168 kts | 42° |
| 2026-04-28 08:28 | 11.16007 | -60.74936 | 6999 ft | 190 kts | 26° |
| 2026-04-28 08:28 | 11.17285 | -60.74412 | 7690 ft | 206 kts | 27° |
| 2026-04-28 08:29 | 11.18593 | -60.73792 | 8398 ft | 208 kts | 30° |
| 2026-04-28 08:29 | 11.19909 | -60.73099 | 8888 ft | 224 kts | 30° |
| 2026-04-28 08:29 | 11.21429 | -60.72284 | 9230 ft | 264 kts | 30° |
| 2026-04-28 08:29 | 11.23116 | -60.71392 | 9446 ft | 280 kts | 29° |
| 2026-04-28 08:30 | 11.24865 | -60.70484 | 9456 ft | 282 kts | 28° |
| 2026-04-28 08:30 | 11.26617 | -60.69583 | 9533 ft | 282 kts | 28° |
| 2026-04-28 08:30 | 11.28364 | -60.68682 | 9621 ft | 281 kts | 28° |
| 2026-04-28 08:30 | 11.30117 | -60.67777 | 9722 ft | 282 kts | 28° |
| 2026-04-28 08:31 | 11.31871 | -60.66870 | 9839 ft | 283 kts | 28° |
| 2026-04-28 08:31 | 11.33604 | -60.65973 | 9966 ft | 284 kts | 28° |
| 2026-04-28 08:31 | 11.35365 | -60.65062 | 10075 ft | 284 kts | 29° |
| 2026-04-28 08:31 | 11.37118 | -60.64155 | 10187 ft | 276 kts | 28° |
| 2026-04-28 08:32 | 11.38755 | -60.63311 | 10293 ft | 259 kts | 29° |
| 2026-04-28 08:32 | 11.40492 | -60.62408 | 10543 ft | 304 kts | 29° |
| 2026-04-28 08:32 | 11.42457 | -60.61379 | 10736 ft | 324 kts | 28° |
| 2026-04-28 08:32 | 11.44497 | -60.60319 | 10790 ft | 333 kts | 28° |
| 2026-04-28 08:33 | 11.46573 | -60.59250 | 10884 ft | 334 kts | 28° |
| 2026-04-28 08:33 | 11.48652 | -60.58180 | 11001 ft | 335 kts | 28° |
| 2026-04-28 08:33 | 11.50699 | -60.57123 | 11116 ft | 335 kts | 28° |
| 2026-04-28 08:33 | 11.52781 | -60.56048 | 11234 ft | 336 kts | 28° |
| 2026-04-28 08:34 | 11.54908 | -60.54944 | 11366 ft | 350 kts | 28° |
| 2026-04-28 08:34 | 11.57081 | -60.53707 | 11486 ft | 363 kts | 33° |
| 2026-04-28 08:34 | 11.59216 | -60.52271 | 11607 ft | 374 kts | 36° |
| 2026-04-28 08:34 | 11.61371 | -60.50739 | 11976 ft | 377 kts | 36° |
| 2026-04-28 08:35 | 11.63536 | -60.49241 | 12496 ft | 377 kts | 34° |
| 2026-04-28 08:35 | 11.65747 | -60.47751 | 12700 ft | 385 kts | 34° |
| 2026-04-28 08:35 | 11.67983 | -60.46249 | 13275 ft | 383 kts | 34° |
| 2026-04-28 08:35 | 11.70177 | -60.44754 | 13651 ft | 387 kts | 35° |
| 2026-04-28 08:36 | 11.72407 | -60.43211 | 14025 ft | 389 kts | 35° |
| 2026-04-28 08:36 | 11.74646 | -60.41650 | 14419 ft | 392 kts | 36° |
| 2026-04-28 08:36 | 11.76901 | -60.40078 | 14838 ft | 392 kts | 36° |
| 2026-04-28 08:36 | 11.79171 | -60.38499 | 15136 ft | 398 kts | 35° |
| 2026-04-28 08:37 | 11.81467 | -60.36903 | 15583 ft | 399 kts | 36° |
| 2026-04-28 08:37 | 11.83762 | -60.35302 | 15987 ft | 402 kts | 36° |
| 2026-04-28 08:37 | 11.86079 | -60.33675 | 16364 ft | 406 kts | 36° |
| 2026-04-28 08:37 | 11.88414 | -60.32034 | 16746 ft | 409 kts | 36° |
| 2026-04-28 08:38 | 11.90735 | -60.30412 | 17230 ft | 410 kts | 36° |
| 2026-04-28 08:38 | 11.93109 | -60.28759 | 17553 ft | 416 kts | 36° |
| 2026-04-28 08:38 | 11.95505 | -60.27089 | 17997 ft | 418 kts | 36° |
| 2026-04-28 08:38 | 11.97916 | -60.25408 | 18393 ft | 421 kts | 37° |
| 2026-04-28 08:39 | 12.00299 | -60.23751 | 18689 ft | 402 kts | 36° |
| 2026-04-28 08:39 | 12.02549 | -60.22192 | 18834 ft | 383 kts | 37° |
| 2026-04-28 08:39 | 12.04744 | -60.20665 | 18939 ft | 382 kts | 37° |
| 2026-04-28 08:39 | 12.06936 | -60.19134 | 18952 ft | 381 kts | 37° |
| 2026-04-28 08:40 | 12.09100 | -60.17618 | 18966 ft | 389 kts | 36° |
| 2026-04-28 08:40 | 12.11387 | -60.16020 | 18969 ft | 405 kts | 37° |
| 2026-04-28 08:40 | 12.13788 | -60.14336 | 18978 ft | 429 kts | 37° |
| 2026-04-28 08:40 | 12.16263 | -60.12583 | 18977 ft | 435 kts | 37° |
| 2026-04-28 08:41 | 12.18729 | -60.10841 | 18976 ft | 416 kts | 36° |
| 2026-04-28 08:41 | 12.21019 | -60.09251 | 18983 ft | 386 kts | 37° |
| 2026-04-28 08:41 | 12.23225 | -60.07721 | 18999 ft | 382 kts | 37° |
| 2026-04-28 08:41 | 12.25415 | -60.06191 | 18975 ft | 381 kts | 37° |
| 2026-04-28 08:42 | 12.27595 | -60.04649 | 18988 ft | 382 kts | 38° |
| 2026-04-28 08:42 | 12.29776 | -60.03108 | 18983 ft | 381 kts | 37° |
| 2026-04-28 08:42 | 12.31935 | -60.01590 | 18984 ft | 382 kts | 37° |
| 2026-04-28 08:42 | 12.34121 | -60.00057 | 18986 ft | 381 kts | 36° |
| 2026-04-28 08:43 | 12.36309 | -59.98522 | 18984 ft | 382 kts | 37° |
| 2026-04-28 08:43 | 12.38499 | -59.96980 | 18979 ft | 381 kts | 36° |
| 2026-04-28 08:43 | 12.40686 | -59.95437 | 18980 ft | 383 kts | 37° |
| 2026-04-28 08:43 | 12.42883 | -59.93895 | 18983 ft | 383 kts | 36° |
| 2026-04-28 08:44 | 12.45079 | -59.92364 | 18978 ft | 384 kts | 37° |
| 2026-04-28 08:44 | 12.47255 | -59.90843 | 18980 ft | 383 kts | 37° |
| 2026-04-28 08:44 | 12.49448 | -59.89299 | 18991 ft | 384 kts | 37° |
| 2026-04-28 08:44 | 12.51640 | -59.87751 | 18989 ft | 383 kts | 37° |
| 2026-04-28 08:45 | 12.53835 | -59.86202 | 18992 ft | 382 kts | 37° |
| 2026-04-28 08:45 | 12.56026 | -59.84656 | 18985 ft | 382 kts | 36° |
| 2026-04-28 08:45 | 12.58216 | -59.83109 | 18989 ft | 383 kts | 37° |
| 2026-04-28 08:45 | 12.60399 | -59.81569 | 18976 ft | 383 kts | 36° |
| 2026-04-28 08:46 | 12.62598 | -59.80024 | 18976 ft | 383 kts | 37° |
| 2026-04-28 08:46 | 12.64787 | -59.78491 | 18995 ft | 382 kts | 37° |
| 2026-04-28 08:46 | 12.66982 | -59.76946 | 18979 ft | 382 kts | 37° |
| 2026-04-28 08:46 | 12.69142 | -59.75419 | 18995 ft | 382 kts | 36° |
| 2026-04-28 08:47 | 12.71326 | -59.73875 | 18982 ft | 382 kts | 37° |
| 2026-04-28 08:47 | 12.73517 | -59.72331 | 18996 ft | 382 kts | 36° |
| 2026-04-28 08:47 | 12.75725 | -59.70777 | 18640 ft | 387 kts | 37° |
| 2026-04-28 08:47 | 12.77939 | -59.69216 | 18086 ft | 384 kts | 36° |
| 2026-04-28 08:48 | 12.80129 | -59.67676 | 17508 ft | 379 kts | 37° |
| 2026-04-28 08:48 | 12.82285 | -59.66159 | 16919 ft | 374 kts | 36° |
| 2026-04-28 08:48 | 12.84419 | -59.64658 | 16357 ft | 370 kts | 36° |
| 2026-04-28 08:48 | 12.86528 | -59.63169 | 15800 ft | 365 kts | 36° |
| 2026-04-28 08:49 | 12.88606 | -59.61698 | 15257 ft | 361 kts | 36° |
| 2026-04-28 08:49 | 12.90627 | -59.60267 | 14741 ft | 357 kts | 36° |
| 2026-04-28 08:49 | 12.92659 | -59.58827 | 14203 ft | 353 kts | 36° |
| 2026-04-28 08:49 | 12.94655 | -59.57395 | 13669 ft | 348 kts | 36° |
| 2026-04-28 08:50 | 12.96627 | -59.55958 | 13096 ft | 346 kts | 36° |
| 2026-04-28 08:50 | 12.98568 | -59.54526 | 12508 ft | 342 kts | 37° |
| 2026-04-28 08:50 | 13.00476 | -59.53099 | 11958 ft | 337 kts | 37° |
| 2026-04-28 08:50 | 13.02326 | -59.51696 | 11373 ft | 325 kts | 37° |
| 2026-04-28 08:51 | 13.04111 | -59.50323 | 10818 ft | 318 kts | 37° |
| 2026-04-28 08:51 | 13.05871 | -59.48967 | 10255 ft | 315 kts | 37° |
| 2026-04-28 08:51 | 13.07593 | -59.47641 | 9709 ft | 312 kts | 37° |
| 2026-04-28 08:51 | 13.09324 | -59.46310 | 9110 ft | 309 kts | 37° |
| 2026-04-28 08:52 | 13.11145 | -59.45152 | 8481 ft | 309 kts | 24° |
| 2026-04-28 08:52 | 13.13215 | -59.44618 | 7893 ft | 310 kts | 7° |
| 2026-04-28 08:52 | 13.15374 | -59.44747 | 7343 ft | 313 kts | 354° |
| 2026-04-28 08:52 | 13.17505 | -59.45255 | 6800 ft | 314 kts | 348° |
| 2026-04-28 08:53 | 13.19594 | -59.45915 | 6275 ft | 313 kts | 345° |
| 2026-04-28 08:53 | 13.21583 | -59.46818 | 6053 ft | 318 kts | 331° |
| 2026-04-28 08:53 | 13.23223 | -59.48311 | 5849 ft | 319 kts | 311° |
| 2026-04-28 08:53 | 13.24316 | -59.50220 | 5610 ft | 303 kts | 295° |
| 2026-04-28 08:54 | 13.24987 | -59.52213 | 5377 ft | 292 kts | 288° |
| 2026-04-28 08:54 | 13.25512 | -59.54229 | 5186 ft | 292 kts | 285° |
| 2026-04-28 08:54 | 13.25989 | -59.56264 | 5031 ft | 294 kts | 285° |
| 2026-04-28 08:54 | 13.26384 | -59.58284 | 4784 ft | 284 kts | 279° |
| 2026-04-28 08:55 | 13.26600 | -59.60260 | 4552 ft | 273 kts | 275° |
| 2026-04-28 08:55 | 13.26609 | -59.62184 | 4316 ft | 269 kts | 259° |
| 2026-04-28 08:55 | 13.26127 | -59.64028 | 4114 ft | 268 kts | 249° |
| 2026-04-28 08:55 | 13.25467 | -59.65791 | 3905 ft | 267 kts | 246° |
| 2026-04-28 08:56 | 13.24743 | -59.67539 | 3676 ft | 265 kts | 244° |
| 2026-04-28 08:56 | 13.24007 | -59.69270 | 3450 ft | 264 kts | 245° |
| 2026-04-28 08:56 | 13.23177 | -59.70941 | 3213 ft | 262 kts | 229° |
| 2026-04-28 08:56 | 13.21817 | -59.72099 | 3024 ft | 250 kts | 200° |
| 2026-04-28 08:57 | 13.20166 | -59.72438 | 3004 ft | 239 kts | 175° |
| 2026-04-28 08:57 | 13.18553 | -59.72103 | 3025 ft | 236 kts | 154° |
| 2026-04-28 08:57 | 13.17078 | -59.71363 | 3035 ft | 236 kts | 148° |
| 2026-04-28 08:57 | 13.15594 | -59.70643 | 3005 ft | 239 kts | 157° |
| 2026-04-28 08:58 | 13.13987 | -59.70173 | 3003 ft | 240 kts | 163° |
| 2026-04-28 08:58 | 13.12382 | -59.69809 | 2986 ft | 240 kts | 164° |
| 2026-04-28 08:58 | 13.10749 | -59.69483 | 2980 ft | 239 kts | 165° |
| 2026-04-28 08:58 | 13.09148 | -59.69176 | 2964 ft | 225 kts | 166° |
| 2026-04-28 08:59 | 13.07669 | -59.68903 | 2968 ft | 208 kts | 165° |
| 2026-04-28 08:59 | 13.06299 | -59.68673 | 2979 ft | 193 kts | 165° |
| 2026-04-28 08:59 | 13.05077 | -59.68144 | 2815 ft | 193 kts | 133° |
| 2026-04-28 08:59 | 13.04353 | -59.67002 | 2314 ft | 195 kts | 103° |
| 2026-04-28 09:00 | 13.04283 | -59.65741 | 2436 ft | 167 kts | 83° |
| 2026-04-28 09:00 | 13.04533 | -59.64537 | 2394 ft | 170 kts | 76° |
| 2026-04-28 09:00 | 13.04861 | -59.63404 | 2310 ft | 162 kts | 73° |
| 2026-04-28 09:00 | 13.05194 | -59.62361 | 2122 ft | 149 kts | 74° |
| 2026-04-28 09:01 | 13.05508 | -59.61370 | 1806 ft | 147 kts | 75° |
| 2026-04-28 09:01 | 13.05771 | -59.60393 | 1640 ft | 142 kts | 79° |
| 2026-04-28 09:01 | 13.05926 | -59.59381 | 1616 ft | 145 kts | 84° |
| 2026-04-28 09:01 | 13.05966 | -59.58341 | 1737 ft | 150 kts | 91° |
| 2026-04-28 09:02 | 13.05921 | -59.57299 | 1610 ft | 139 kts | 94° |
| 2026-04-28 09:02 | 13.05827 | -59.56348 | 1431 ft | 129 kts | 96° |
| 2026-04-28 09:02 | 13.05864 | -59.55439 | 1114 ft | 130 kts | 82° |
| 2026-04-28 09:02 | 13.06101 | -59.54520 | 883 ft | 138 kts | 77° |
| 2026-04-28 09:03 | 13.06350 | -59.53600 | 702 ft | 130 kts | 76° |
| 2026-04-28 09:03 | 13.06596 | -59.52697 | 534 ft | 134 kts | 78° |
| 2026-04-28 09:03 | 13.06828 | -59.51790 | 445 ft | 135 kts | 78° |
| 2026-04-28 09:03 | 13.07073 | -59.50812 | 248 ft | 142 kts | 78° |
| 2026-04-28 09:04 | 13.07253 | -59.50047 | 180 ft | 55 kts | 75° |
| 2026-04-28 09:04 | 13.07337 | -59.49707 | 176 ft | 47 kts | 73° |
| 2026-04-28 09:04 | 13.07402 | -59.49446 | 176 ft | 29 kts | 77° |
| 2026-04-28 09:04 | 13.07446 | -59.49251 | 175 ft | 27 kts | 76° |
| 2026-04-28 09:05 | 13.07499 | -59.49068 | 175 ft | 23 kts | 74° |
| 2026-04-28 09:05 | 13.07593 | -59.48935 | 175 ft | 24 kts | 44° |
| 2026-04-28 09:05 | 13.07659 | -59.48865 | 175 ft | 11 kts | 46° |
| 2026-04-28 09:05 | 13.07722 | -59.48798 | 174 ft | 15 kts | 46° |
| 2026-04-28 09:06 | 13.07780 | -59.48738 | 174 ft | 6 kts | 38° |
| 2026-04-28 09:06 | 13.07792 | -59.48730 | 174 ft | 1 kts | 23° |
| 2026-04-28 09:06 | 13.07797 | -59.48732 | 174 ft | 2 kts | 349° |
| 2026-04-28 09:06 | 13.07827 | -59.48738 | 158 ft | 7 kts | 348° |
| 2026-04-28 09:07 | 13.07859 | -59.48746 | 174 ft | 1 kts | 346° |
| 2026-04-28 09:07 | 13.07875 | -59.48751 | 174 ft | 0 kts | 345° |